< < Back
Terminal Aerodrome Forecast


Current Version              Previous Versions:   1  2  3  4  5  6  7  8  9  

Terminal Aerodrome Forecast

190
FTUS44 KBMX 211700
TAFTCL
TAF
KTCL 211720Z 2118/2218 10007KT P6SM BKN150
     FM220300 11003KT P6SM BKN150
     FM221500 12007KT P6SM SCT050 BKN150=

Latest METAR

269
SAUS70 KWBC 211900 RRI
MTRTCL
METAR KTCL 211853Z 04003KT 10SM CLR 19/07 A3032 RMK AO2 SLP267
T01940072


USA.gov is the U.S. government's official web portal to all federal, state and local government web resources and services.